Fredericksburg, Missouri
Current Conditions -  °F | °C
As of 9:17 PM on Monday 22 Dec 2014 (Local Time) from KJEF Reporting Station
Overcast Overcast  
Wind Chill: 44°   Ceiling: 4400
Heat Index: 48°   Visibility: 10mi
Dew Point: 46°   Wind: 8mph
Humidity: 93%   Direction: 250°WSW
Pressure: 29.53"   Gusts: NA
Location:  38.5959°N, 91.6636°W
Report Text: KJEF 230317Z AUTO 25007KT 10SM SCT016 BKN044 OVC055 09/08 A2953 RMK AO2 T00890078
Loading
Personal Weather Stations






























Interactive Weather Map New forecast layout! Learn more

10-Day Weather Forecast

Advertisements
Track Severe Weather on mobile